sensor_id;sensor_type;location;lat;lon;timestamp;temperature;humidity
9305;DHT22;4690;52.422;13.486;2022-10-17T00:05:53;12.50;99.90
9305;DHT22;4690;52.422;13.486;2022-10-17T00:08:19;12.50;99.90
9305;DHT22;4690;52.422;13.486;2022-10-17T00:10:58;12.50;99.90
9305;DHT22;4690;52.422;13.486;2022-10-17T00:13:25;12.60;99.90
9305;DHT22;4690;52.422;13.486;2022-10-17T00:15:51;12.60;99.90
9305;DHT22;4690;52.422;13.486;2022-10-17T00:18:17;12.60;99.90
9305;DHT22;4690;52.422;13.486;2022-10-17T00:20:43;12.60;99.90
9305;DHT22;4690;52.422;13.486;2022-10-17T00:23:08;12.60;99.90
9305;DHT22;4690;52.422;13.486;2022-10-17T00:25:34;12.60;99.90
9305;DHT22;4690;52.422;13.486;2022-10-17T00:28:01;12.60;99.90
9305;DHT22;4690;52.422;13.486;2022-10-17T00:30:28;12.60;99.90
9305;DHT22;4690;52.422;13.486;2022-10-17T00:32:54;12.70;99.90
9305;DHT22;4690;52.422;13.486;2022-10-17T00:35:19;12.60;99.90
9305;DHT22;4690;52.422;13.486;2022-10-17T00:37:45;12.60;99.90
9305;DHT22;4690;52.422;13.486;2022-10-17T00:40:11;12.60;99.90
9305;DHT22;4690;52.422;13.486;2022-10-17T00:42:37;12.60;99.90
9305;DHT22;4690;52.422;13.486;2022-10-17T00:47:47;12.50;99.90
9305;DHT22;4690;52.422;13.486;2022-10-17T00:50:16;12.50;99.90
9305;DHT22;4690;52.422;13.486;2022-10-17T00:52:45;12.50;99.90
9305;DHT22;4690;52.422;13.486;2022-10-17T00:55:42;12.50;99.90
9305;DHT22;4690;52.422;13.486;2022-10-17T00:58:12;12.40;99.90
9305;DHT22;4690;52.422;13.486;2022-10-17T01:00:39;12.40;99.90
9305;DHT22;4690;52.422;13.486;2022-10-17T01:03:05;12.40;99.90
9305;DHT22;4690;52.422;13.486;2022-10-17T01:05:31;12.40;99.90
9305;DHT22;4690;52.422;13.486;2022-10-17T01:07:57;12.40;99.90
9305;DHT22;4690;52.422;13.486;2022-10-17T01:10:29;12.50;99.90
9305;DHT22;4690;52.422;13.486;2022-10-17T01:30:02;12.40;99.90
9305;DHT22;4690;52.422;13.486;2022-10-17T01:32:46;12.40;99.90
9305;DHT22;4690;52.422;13.486;2022-10-17T01:35:37;12.40;99.90
9305;DHT22;4690;52.422;13.486;2022-10-17T01:38:17;12.40;99.90
9305;DHT22;4690;52.422;13.486;2022-10-17T01:40:59;12.40;99.90
9305;DHT22;4690;52.422;13.486;2022-10-17T01:43:36;12.30;99.90
9305;DHT22;4690;52.422;13.486;2022-10-17T01:46:15;12.30;99.90
9305;DHT22;4690;52.422;13.486;2022-10-17T01:48:49;12.20;99.90
9305;DHT22;4690;52.422;13.486;2022-10-17T01:51:27;12.20;99.90
9305;DHT22;4690;52.422;13.486;2022-10-17T01:54:10;12.20;99.90
9305;DHT22;4690;52.422;13.486;2022-10-17T01:56:42;12.20;99.90
9305;DHT22;4690;52.422;13.486;2022-10-17T01:59:14;12.20;99.90
9305;DHT22;4690;52.422;13.486;2022-10-17T02:01:47;12.20;99.90
9305;DHT22;4690;52.422;13.486;2022-10-17T02:04:16;12.10;99.90
9305;DHT22;4690;52.422;13.486;2022-10-17T02:06:41;12.10;99.90
9305;DHT22;4690;52.422;13.486;2022-10-17T02:09:24;12.00;99.90
9305;DHT22;4690;52.422;13.486;2022-10-17T02:12:31;12.00;99.90
9305;DHT22;4690;52.422;13.486;2022-10-17T02:18:22;12.00;99.90
9305;DHT22;4690;52.422;13.486;2022-10-17T02:26:14;12.00;99.90
9305;DHT22;4690;52.422;13.486;2022-10-17T02:29:05;12.00;99.90
9305;DHT22;4690;52.422;13.486;2022-10-17T02:31:46;12.00;99.90
9305;DHT22;4690;52.422;13.486;2022-10-17T02:36:51;11.90;99.90
9305;DHT22;4690;52.422;13.486;2022-10-17T02:39:22;11.90;99.90
9305;DHT22;4690;52.422;13.486;2022-10-17T02:41:50;11.90;99.90
9305;DHT22;4690;52.422;13.486;2022-10-17T02:44:19;11.90;99.90
9305;DHT22;4690;52.422;13.486;2022-10-17T02:46:56;11.90;99.90
9305;DHT22;4690;52.422;13.486;2022-10-17T02:49:31;11.90;99.90
9305;DHT22;4690;52.422;13.486;2022-10-17T02:54:50;11.90;99.90
9305;DHT22;4690;52.422;13.486;2022-10-17T02:57:26;11.90;99.90
9305;DHT22;4690;52.422;13.486;2022-10-17T03:00:00;12.00;99.90
9305;DHT22;4690;52.422;13.486;2022-10-17T03:02:28;12.00;99.90
9305;DHT22;4690;52.422;13.486;2022-10-17T03:05:03;12.00;99.90
9305;DHT22;4690;52.422;13.486;2022-10-17T03:07:29;12.00;99.90
9305;DHT22;4690;52.422;13.486;2022-10-17T03:09:54;12.00;99.90
9305;DHT22;4690;52.422;13.486;2022-10-17T03:12:20;12.00;99.90
9305;DHT22;4690;52.422;13.486;2022-10-17T03:14:46;12.00;99.90
9305;DHT22;4690;52.422;13.486;2022-10-17T03:17:11;12.10;99.90
9305;DHT22;4690;52.422;13.486;2022-10-17T03:19:37;12.10;99.90
9305;DHT22;4690;52.422;13.486;2022-10-17T03:22:02;12.20;99.90
9305;DHT22;4690;52.422;13.486;2022-10-17T03:24:28;12.20;99.90
9305;DHT22;4690;52.422;13.486;2022-10-17T03:26:54;12.30;99.90
9305;DHT22;4690;52.422;13.486;2022-10-17T03:29:19;12.40;99.90
9305;DHT22;4690;52.422;13.486;2022-10-17T03:31:45;12.40;99.90
9305;DHT22;4690;52.422;13.486;2022-10-17T03:34:11;12.40;99.90
9305;DHT22;4690;52.422;13.486;2022-10-17T03:36:37;12.50;99.90
9305;DHT22;4690;52.422;13.486;2022-10-17T03:39:02;12.60;99.90
9305;DHT22;4690;52.422;13.486;2022-10-17T03:41:28;12.70;99.90
9305;DHT22;4690;52.422;13.486;2022-10-17T03:43:54;12.80;99.90
9305;DHT22;4690;52.422;13.486;2022-10-17T03:46:19;12.80;99.90
9305;DHT22;4690;52.422;13.486;2022-10-17T03:48:45;12.90;99.90
9305;DHT22;4690;52.422;13.486;2022-10-17T03:51:11;13.00;99.90
9305;DHT22;4690;52.422;13.486;2022-10-17T03:53:36;13.10;99.90
9305;DHT22;4690;52.422;13.486;2022-10-17T03:56:28;13.10;99.90
9305;DHT22;4690;52.422;13.486;2022-10-17T03:58:55;13.10;99.90
9305;DHT22;4690;52.422;13.486;2022-10-17T04:01:21;13.20;99.90
9305;DHT22;4690;52.422;13.486;2022-10-17T04:03:52;13.20;99.90
9305;DHT22;4690;52.422;13.486;2022-10-17T04:06:21;13.30;99.90
9305;DHT22;4690;52.422;13.486;2022-10-17T04:08:47;13.30;99.90
9305;DHT22;4690;52.422;13.486;2022-10-17T04:11:16;13.30;99.90
9305;DHT22;4690;52.422;13.486;2022-10-17T04:13:44;13.30;99.90
9305;DHT22;4690;52.422;13.486;2022-10-17T04:16:15;13.30;99.90
9305;DHT22;4690;52.422;13.486;2022-10-17T04:18:42;13.30;99.90
9305;DHT22;4690;52.422;13.486;2022-10-17T04:21:09;13.30;99.90
9305;DHT22;4690;52.422;13.486;2022-10-17T04:23:35;13.20;99.90
9305;DHT22;4690;52.422;13.486;2022-10-17T04:26:01;13.10;99.90
9305;DHT22;4690;52.422;13.486;2022-10-17T04:28:28;13.10;99.90
9305;DHT22;4690;52.422;13.486;2022-10-17T04:30:59;13.10;99.90
9305;DHT22;4690;52.422;13.486;2022-10-17T04:33:26;13.00;99.90
9305;DHT22;4690;52.422;13.486;2022-10-17T04:36:06;12.90;99.90
9305;DHT22;4690;52.422;13.486;2022-10-17T04:38:36;12.80;99.90
9305;DHT22;4690;52.422;13.486;2022-10-17T04:41:05;12.80;99.90
9305;DHT22;4690;52.422;13.486;2022-10-17T04:43:35;12.70;99.90
9305;DHT22;4690;52.422;13.486;2022-10-17T04:46:04;12.70;99.90
9305;DHT22;4690;52.422;13.486;2022-10-17T04:48:34;12.70;99.90
9305;DHT22;4690;52.422;13.486;2022-10-17T04:51:03;12.60;99.90
9305;DHT22;4690;52.422;13.486;2022-10-17T04:53:33;12.60;99.90
9305;DHT22;4690;52.422;13.486;2022-10-17T04:56:00;12.50;99.90
9305;DHT22;4690;52.422;13.486;2022-10-17T04:58:31;12.60;99.90
9305;DHT22;4690;52.422;13.486;2022-10-17T05:00:57;12.60;99.90
9305;DHT22;4690;52.422;13.486;2022-10-17T05:03:22;12.50;99.90
9305;DHT22;4690;52.422;13.486;2022-10-17T05:05:48;12.50;99.90
9305;DHT22;4690;52.422;13.486;2022-10-17T05:08:14;12.60;99.90
9305;DHT22;4690;52.422;13.486;2022-10-17T05:10:42;12.60;99.90
9305;DHT22;4690;52.422;13.486;2022-10-17T05:13:09;12.60;99.90
9305;DHT22;4690;52.422;13.486;2022-10-17T05:15:36;12.60;99.90
9305;DHT22;4690;52.422;13.486;2022-10-17T05:18:03;12.50;99.90
9305;DHT22;4690;52.422;13.486;2022-10-17T05:20:30;12.60;99.90
9305;DHT22;4690;52.422;13.486;2022-10-17T05:23:00;12.60;99.90
9305;DHT22;4690;52.422;13.486;2022-10-17T05:25:26;12.50;99.90
9305;DHT22;4690;52.422;13.486;2022-10-17T05:27:52;12.50;99.90
9305;DHT22;4690;52.422;13.486;2022-10-17T05:30:18;12.50;99.90
9305;DHT22;4690;52.422;13.486;2022-10-17T05:32:44;12.50;99.90
9305;DHT22;4690;52.422;13.486;2022-10-17T05:35:10;12.50;99.90
9305;DHT22;4690;52.422;13.486;2022-10-17T05:37:35;12.40;99.90
9305;DHT22;4690;52.422;13.486;2022-10-17T05:40:01;12.50;99.90
9305;DHT22;4690;52.422;13.486;2022-10-17T05:42:27;12.40;99.90
9305;DHT22;4690;52.422;13.486;2022-10-17T05:44:53;12.50;99.90
9305;DHT22;4690;52.422;13.486;2022-10-17T05:47:18;12.40;99.90
9305;DHT22;4690;52.422;13.486;2022-10-17T05:49:44;12.30;99.90
9305;DHT22;4690;52.422;13.486;2022-10-17T05:52:10;12.30;99.90
9305;DHT22;4690;52.422;13.486;2022-10-17T05:54:35;12.30;99.90
9305;DHT22;4690;52.422;13.486;2022-10-17T05:57:01;12.30;99.90
9305;DHT22;4690;52.422;13.486;2022-10-17T05:59:27;12.30;99.90
9305;DHT22;4690;52.422;13.486;2022-10-17T06:01:53;12.30;99.90
9305;DHT22;4690;52.422;13.486;2022-10-17T06:04:19;12.30;99.90
9305;DHT22;4690;52.422;13.486;2022-10-17T06:06:45;12.30;99.90
9305;DHT22;4690;52.422;13.486;2022-10-17T06:09:11;12.30;99.90
9305;DHT22;4690;52.422;13.486;2022-10-17T06:11:36;12.30;99.90
9305;DHT22;4690;52.422;13.486;2022-10-17T06:14:03;12.40;99.90
9305;DHT22;4690;52.422;13.486;2022-10-17T06:16:29;12.40;99.90
9305;DHT22;4690;52.422;13.486;2022-10-17T06:18:54;12.50;99.90
9305;DHT22;4690;52.422;13.486;2022-10-17T06:21:23;12.60;99.90
9305;DHT22;4690;52.422;13.486;2022-10-17T06:23:50;12.80;99.90
9305;DHT22;4690;52.422;13.486;2022-10-17T06:26:17;13.00;99.90
9305;DHT22;4690;52.422;13.486;2022-10-17T06:28:43;13.10;99.90
9305;DHT22;4690;52.422;13.486;2022-10-17T06:31:11;13.30;99.90
9305;DHT22;4690;52.422;13.486;2022-10-17T06:33:39;13.40;99.90
9305;DHT22;4690;52.422;13.486;2022-10-17T06:36:06;13.50;99.90
9305;DHT22;4690;52.422;13.486;2022-10-17T06:38:33;13.60;99.90
9305;DHT22;4690;52.422;13.486;2022-10-17T06:41:15;13.60;99.90
9305;DHT22;4690;52.422;13.486;2022-10-17T06:43:44;13.80;99.90
9305;DHT22;4690;52.422;13.486;2022-10-17T06:46:12;13.80;99.90
9305;DHT22;4690;52.422;13.486;2022-10-17T06:48:38;13.80;99.90
9305;DHT22;4690;52.422;13.486;2022-10-17T06:51:05;13.90;99.90
9305;DHT22;4690;52.422;13.486;2022-10-17T06:53:34;14.00;99.90
9305;DHT22;4690;52.422;13.486;2022-10-17T06:56:01;14.10;99.90
9305;DHT22;4690;52.422;13.486;2022-10-17T06:58:33;14.10;99.90
9305;DHT22;4690;52.422;13.486;2022-10-17T07:01:03;14.10;99.90
9305;DHT22;4690;52.422;13.486;2022-10-17T07:03:31;14.20;99.90
9305;DHT22;4690;52.422;13.486;2022-10-17T07:05:57;14.20;99.90
9305;DHT22;4690;52.422;13.486;2022-10-17T07:08:23;14.30;99.90
9305;DHT22;4690;52.422;13.486;2022-10-17T07:10:50;14.40;99.90
9305;DHT22;4690;52.422;13.486;2022-10-17T07:13:17;14.40;99.90
9305;DHT22;4690;52.422;13.486;2022-10-17T07:15:43;14.50;99.90
9305;DHT22;4690;52.422;13.486;2022-10-17T07:18:09;14.50;99.90
9305;DHT22;4690;52.422;13.486;2022-10-17T07:20:35;14.50;99.90
9305;DHT22;4690;52.422;13.486;2022-10-17T07:23:01;14.60;99.90
9305;DHT22;4690;52.422;13.486;2022-10-17T07:25:27;14.70;99.90
9305;DHT22;4690;52.422;13.486;2022-10-17T07:27:54;14.70;99.90
9305;DHT22;4690;52.422;13.486;2022-10-17T07:30:21;14.70;99.90
9305;DHT22;4690;52.422;13.486;2022-10-17T07:32:47;14.70;99.90
9305;DHT22;4690;52.422;13.486;2022-10-17T07:35:13;14.80;99.90
9305;DHT22;4690;52.422;13.486;2022-10-17T07:37:39;14.80;99.90
9305;DHT22;4690;52.422;13.486;2022-10-17T07:40:07;14.90;99.90
9305;DHT22;4690;52.422;13.486;2022-10-17T07:42:35;15.00;99.90
9305;DHT22;4690;52.422;13.486;2022-10-17T07:45:02;15.30;99.90
9305;DHT22;4690;52.422;13.486;2022-10-17T07:47:28;15.40;99.90
9305;DHT22;4690;52.422;13.486;2022-10-17T07:49:56;15.60;99.90
9305;DHT22;4690;52.422;13.486;2022-10-17T07:52:22;15.70;99.90
9305;DHT22;4690;52.422;13.486;2022-10-17T07:54:48;15.90;99.90
9305;DHT22;4690;52.422;13.486;2022-10-17T07:57:13;16.00;99.90
9305;DHT22;4690;52.422;13.486;2022-10-17T07:59:39;16.20;99.90
9305;DHT22;4690;52.422;13.486;2022-10-17T08:02:05;16.30;99.90
9305;DHT22;4690;52.422;13.486;2022-10-17T08:04:33;16.50;99.90
9305;DHT22;4690;52.422;13.486;2022-10-17T08:06:59;16.50;99.90
9305;DHT22;4690;52.422;13.486;2022-10-17T08:09:25;16.60;99.90
9305;DHT22;4690;52.422;13.486;2022-10-17T08:11:51;16.70;99.90
9305;DHT22;4690;52.422;13.486;2022-10-17T08:14:16;16.80;99.90
9305;DHT22;4690;52.422;13.486;2022-10-17T08:16:42;16.90;99.90
9305;DHT22;4690;52.422;13.486;2022-10-17T08:19:08;17.00;99.90
9305;DHT22;4690;52.422;13.486;2022-10-17T08:21:36;17.10;99.90
9305;DHT22;4690;52.422;13.486;2022-10-17T08:24:03;17.20;99.90
9305;DHT22;4690;52.422;13.486;2022-10-17T08:26:29;17.40;99.90
9305;DHT22;4690;52.422;13.486;2022-10-17T08:28:55;17.40;99.90
9305;DHT22;4690;52.422;13.486;2022-10-17T08:31:21;17.70;99.90
9305;DHT22;4690;52.422;13.486;2022-10-17T08:33:48;17.80;99.90
9305;DHT22;4690;52.422;13.486;2022-10-17T08:36:16;17.90;99.90
9305;DHT22;4690;52.422;13.486;2022-10-17T08:38:44;17.90;99.90
9305;DHT22;4690;52.422;13.486;2022-10-17T08:41:39;18.00;99.90
9305;DHT22;4690;52.422;13.486;2022-10-17T08:44:18;18.10;99.90
9305;DHT22;4690;52.422;13.486;2022-10-17T08:46:57;18.30;99.90
9305;DHT22;4690;52.422;13.486;2022-10-17T08:49:46;18.40;99.90
9305;DHT22;4690;52.422;13.486;2022-10-17T08:52:33;18.60;99.90
9305;DHT22;4690;52.422;13.486;2022-10-17T08:54:59;18.70;99.90
9305;DHT22;4690;52.422;13.486;2022-10-17T08:57:25;18.80;99.90
9305;DHT22;4690;52.422;13.486;2022-10-17T08:59:53;18.80;99.90
9305;DHT22;4690;52.422;13.486;2022-10-17T09:07:52;19.00;99.90
9305;DHT22;4690;52.422;13.486;2022-10-17T09:19:00;19.20;99.90
9305;DHT22;4690;52.422;13.486;2022-10-17T09:21:43;19.30;99.90
9305;DHT22;4690;52.422;13.486;2022-10-17T09:27:22;19.40;99.90
9305;DHT22;4690;52.422;13.486;2022-10-17T09:30:31;19.40;99.90
9305;DHT22;4690;52.422;13.486;2022-10-17T09:33:09;19.40;99.90
9305;DHT22;4690;52.422;13.486;2022-10-17T09:35:41;19.50;99.90
9305;DHT22;4690;52.422;13.486;2022-10-17T09:38:16;19.50;99.90
9305;DHT22;4690;52.422;13.486;2022-10-17T09:40:49;19.60;99.90
9305;DHT22;4690;52.422;13.486;2022-10-17T09:43:23;19.60;99.90
9305;DHT22;4690;52.422;13.486;2022-10-17T09:46:16;19.70;99.90
9305;DHT22;4690;52.422;13.486;2022-10-17T09:48:57;19.80;99.90
9305;DHT22;4690;52.422;13.486;2022-10-17T09:51:30;19.90;99.90
9305;DHT22;4690;52.422;13.486;2022-10-17T09:54:00;20.00;99.90
9305;DHT22;4690;52.422;13.486;2022-10-17T09:56:29;20.00;99.90
9305;DHT22;4690;52.422;13.486;2022-10-17T09:58:56;20.20;99.90
9305;DHT22;4690;52.422;13.486;2022-10-17T10:01:28;20.40;99.90
9305;DHT22;4690;52.422;13.486;2022-10-17T10:04:16;20.50;99.90
9305;DHT22;4690;52.422;13.486;2022-10-17T10:07:05;20.70;99.90
9305;DHT22;4690;52.422;13.486;2022-10-17T10:09:36;20.70;99.90
9305;DHT22;4690;52.422;13.486;2022-10-17T10:12:13;20.70;99.90
9305;DHT22;4690;52.422;13.486;2022-10-17T10:14:43;20.90;99.90
9305;DHT22;4690;52.422;13.486;2022-10-17T10:17:34;21.00;99.90
9305;DHT22;4690;52.422;13.486;2022-10-17T10:20:01;21.20;99.90
9305;DHT22;4690;52.422;13.486;2022-10-17T10:22:28;21.30;99.90
9305;DHT22;4690;52.422;13.486;2022-10-17T10:27:35;21.60;99.90
9305;DHT22;4690;52.422;13.486;2022-10-17T10:30:04;21.70;99.90
9305;DHT22;4690;52.422;13.486;2022-10-17T10:32:33;21.70;99.90
9305;DHT22;4690;52.422;13.486;2022-10-17T10:35:21;21.80;99.90
9305;DHT22;4690;52.422;13.486;2022-10-17T10:37:53;21.80;99.90
9305;DHT22;4690;52.422;13.486;2022-10-17T10:43:36;22.00;99.90
9305;DHT22;4690;52.422;13.486;2022-10-17T10:46:19;22.20;99.90
9305;DHT22;4690;52.422;13.486;2022-10-17T10:49:00;22.40;99.90
9305;DHT22;4690;52.422;13.486;2022-10-17T10:54:22;22.70;99.90
9305;DHT22;4690;52.422;13.486;2022-10-17T10:56:56;23.10;99.90
9305;DHT22;4690;52.422;13.486;2022-10-17T10:59:41;23.10;99.90
9305;DHT22;4690;52.422;13.486;2022-10-17T11:02:11;23.30;99.90
9305;DHT22;4690;52.422;13.486;2022-10-17T11:04:51;23.50;99.90
9305;DHT22;4690;52.422;13.486;2022-10-17T11:08:09;23.70;99.90
9305;DHT22;4690;52.422;13.486;2022-10-17T11:10:58;23.70;99.90
9305;DHT22;4690;52.422;13.486;2022-10-17T11:13:39;23.80;99.90
9305;DHT22;4690;52.422;13.486;2022-10-17T11:16:27;23.90;99.90
9305;DHT22;4690;52.422;13.486;2022-10-17T11:19:24;24.20;99.90
9305;DHT22;4690;52.422;13.486;2022-10-17T11:27:29;24.10;99.90
9305;DHT22;4690;52.422;13.486;2022-10-17T11:29:56;24.20;99.90
9305;DHT22;4690;52.422;13.486;2022-10-17T11:32:45;24.10;99.90
9305;DHT22;4690;52.422;13.486;2022-10-17T11:35:34;24.20;99.90
9305;DHT22;4690;52.422;13.486;2022-10-17T11:40:50;24.20;99.90
9305;DHT22;4690;52.422;13.486;2022-10-17T11:43:20;24.10;99.90
9305;DHT22;4690;52.422;13.486;2022-10-17T11:45:57;24.10;99.90
9305;DHT22;4690;52.422;13.486;2022-10-17T11:48:38;24.00;99.90
9305;DHT22;4690;52.422;13.486;2022-10-17T11:51:09;24.10;99.90
9305;DHT22;4690;52.422;13.486;2022-10-17T11:53:50;24.30;99.90
9305;DHT22;4690;52.422;13.486;2022-10-17T11:56:41;24.50;99.90
9305;DHT22;4690;52.422;13.486;2022-10-17T12:01:59;24.40;99.90
9305;DHT22;4690;52.422;13.486;2022-10-17T12:07:59;24.50;99.90
9305;DHT22;4690;52.422;13.486;2022-10-17T12:15:53;25.00;99.90
9305;DHT22;4690;52.422;13.486;2022-10-17T12:18:23;24.90;99.90
9305;DHT22;4690;52.422;13.486;2022-10-17T12:20:58;24.90;99.90
9305;DHT22;4690;52.422;13.486;2022-10-17T12:23:30;24.90;99.90
9305;DHT22;4690;52.422;13.486;2022-10-17T12:26:04;25.10;99.90
9305;DHT22;4690;52.422;13.486;2022-10-17T12:28:46;25.20;99.90
9305;DHT22;4690;52.422;13.486;2022-10-17T12:33:48;24.80;99.90
9305;DHT22;4690;52.422;13.486;2022-10-17T12:38:49;24.90;99.90
9305;DHT22;4690;52.422;13.486;2022-10-17T12:49:48;25.10;99.90
9305;DHT22;4690;52.422;13.486;2022-10-17T12:57:53;24.70;99.90
9305;DHT22;4690;52.422;13.486;2022-10-17T13:00:56;24.60;99.90
9305;DHT22;4690;52.422;13.486;2022-10-17T13:03:39;24.60;99.90
9305;DHT22;4690;52.422;13.486;2022-10-17T13:06:48;24.70;99.90
9305;DHT22;4690;52.422;13.486;2022-10-17T13:09:34;24.70;99.90
9305;DHT22;4690;52.422;13.486;2022-10-17T13:12:05;24.80;99.90
9305;DHT22;4690;52.422;13.486;2022-10-17T13:14:40;24.80;99.90
9305;DHT22;4690;52.422;13.486;2022-10-17T13:17:27;24.70;99.90
9305;DHT22;4690;52.422;13.486;2022-10-17T13:19:56;24.70;99.90
9305;DHT22;4690;52.422;13.486;2022-10-17T13:22:24;24.60;99.90
9305;DHT22;4690;52.422;13.486;2022-10-17T13:25:03;24.60;99.90
9305;DHT22;4690;52.422;13.486;2022-10-17T13:27:49;24.50;99.90
9305;DHT22;4690;52.422;13.486;2022-10-17T13:30:30;24.50;99.90
9305;DHT22;4690;52.422;13.486;2022-10-17T13:32:57;24.60;99.90
9305;DHT22;4690;52.422;13.486;2022-10-17T13:35:30;24.60;99.90
9305;DHT22;4690;52.422;13.486;2022-10-17T13:38:00;24.50;99.90
9305;DHT22;4690;52.422;13.486;2022-10-17T13:40:29;24.50;99.90
9305;DHT22;4690;52.422;13.486;2022-10-17T13:43:02;24.50;99.90
9305;DHT22;4690;52.422;13.486;2022-10-17T13:45:33;24.60;99.90
9305;DHT22;4690;52.422;13.486;2022-10-17T13:48:04;24.60;99.90
9305;DHT22;4690;52.422;13.486;2022-10-17T13:50:42;24.70;99.90
9305;DHT22;4690;52.422;13.486;2022-10-17T13:53:24;24.50;99.90
9305;DHT22;4690;52.422;13.486;2022-10-17T13:56:17;24.50;99.90
9305;DHT22;4690;52.422;13.486;2022-10-17T13:58:48;24.60;99.90
9305;DHT22;4690;52.422;13.486;2022-10-17T14:01:16;24.60;99.90
9305;DHT22;4690;52.422;13.486;2022-10-17T14:03:44;24.70;99.90
9305;DHT22;4690;52.422;13.486;2022-10-17T14:06:23;24.60;99.90
9305;DHT22;4690;52.422;13.486;2022-10-17T14:08:59;24.60;99.90
9305;DHT22;4690;52.422;13.486;2022-10-17T14:11:33;24.60;99.90
9305;DHT22;4690;52.422;13.486;2022-10-17T14:14:06;24.60;99.90
9305;DHT22;4690;52.422;13.486;2022-10-17T14:16:44;24.60;99.90
9305;DHT22;4690;52.422;13.486;2022-10-17T14:19:28;24.60;99.90
9305;DHT22;4690;52.422;13.486;2022-10-17T14:24:47;24.60;99.90
9305;DHT22;4690;52.422;13.486;2022-10-17T14:27:55;24.50;99.90
9305;DHT22;4690;52.422;13.486;2022-10-17T14:30:34;24.50;99.90
9305;DHT22;4690;52.422;13.486;2022-10-17T14:33:06;24.50;99.90
9305;DHT22;4690;52.422;13.486;2022-10-17T14:35:33;24.50;99.90
9305;DHT22;4690;52.422;13.486;2022-10-17T14:38:02;24.50;99.90
9305;DHT22;4690;52.422;13.486;2022-10-17T14:40:30;24.50;99.90
9305;DHT22;4690;52.422;13.486;2022-10-17T14:43:02;24.50;99.90
9305;DHT22;4690;52.422;13.486;2022-10-17T14:45:36;24.40;99.90
9305;DHT22;4690;52.422;13.486;2022-10-17T14:48:13;24.30;99.90
9305;DHT22;4690;52.422;13.486;2022-10-17T14:50:42;24.30;99.90
9305;DHT22;4690;52.422;13.486;2022-10-17T14:53:33;24.20;99.90
9305;DHT22;4690;52.422;13.486;2022-10-17T14:56:02;24.10;99.90
9305;DHT22;4690;52.422;13.486;2022-10-17T14:58:33;24.00;99.90
9305;DHT22;4690;52.422;13.486;2022-10-17T15:01:00;23.90;99.90
9305;DHT22;4690;52.422;13.486;2022-10-17T15:03:26;23.80;99.90
9305;DHT22;4690;52.422;13.486;2022-10-17T15:05:53;23.70;99.90
9305;DHT22;4690;52.422;13.486;2022-10-17T15:08:21;23.60;99.90
9305;DHT22;4690;52.422;13.486;2022-10-17T15:10:49;23.50;99.90
9305;DHT22;4690;52.422;13.486;2022-10-17T15:13:16;23.50;99.90
9305;DHT22;4690;52.422;13.486;2022-10-17T15:15:42;23.40;99.90
9305;DHT22;4690;52.422;13.486;2022-10-17T15:18:11;23.30;99.90
9305;DHT22;4690;52.422;13.486;2022-10-17T15:20:38;23.30;99.90
9305;DHT22;4690;52.422;13.486;2022-10-17T15:23:04;23.10;99.90
9305;DHT22;4690;52.422;13.486;2022-10-17T15:25:31;23.10;99.90
9305;DHT22;4690;52.422;13.486;2022-10-17T15:27:57;22.90;99.90
9305;DHT22;4690;52.422;13.486;2022-10-17T15:30:29;22.90;99.90
9305;DHT22;4690;52.422;13.486;2022-10-17T15:32:57;22.80;99.90
9305;DHT22;4690;52.422;13.486;2022-10-17T15:35:24;22.80;99.90
9305;DHT22;4690;52.422;13.486;2022-10-17T15:37:50;22.70;99.90
9305;DHT22;4690;52.422;13.486;2022-10-17T15:40:19;22.70;99.90
9305;DHT22;4690;52.422;13.486;2022-10-17T15:42:49;22.50;99.90
9305;DHT22;4690;52.422;13.486;2022-10-17T15:45:18;22.40;99.90
9305;DHT22;4690;52.422;13.486;2022-10-17T15:47:52;22.30;99.90
9305;DHT22;4690;52.422;13.486;2022-10-17T15:50:24;22.10;99.90
9305;DHT22;4690;52.422;13.486;2022-10-17T15:52:56;21.90;99.90
9305;DHT22;4690;52.422;13.486;2022-10-17T15:55:22;21.70;99.90
9305;DHT22;4690;52.422;13.486;2022-10-17T15:57:48;21.70;99.90
9305;DHT22;4690;52.422;13.486;2022-10-17T16:00:19;21.50;99.90
9305;DHT22;4690;52.422;13.486;2022-10-17T16:02:49;21.40;99.90
9305;DHT22;4690;52.422;13.486;2022-10-17T16:07:44;21.00;99.90
9305;DHT22;4690;52.422;13.486;2022-10-17T16:10:11;20.90;99.90
9305;DHT22;4690;52.422;13.486;2022-10-17T16:12:37;20.70;99.90
9305;DHT22;4690;52.422;13.486;2022-10-17T16:15:13;20.60;99.90
9305;DHT22;4690;52.422;13.486;2022-10-17T16:17:43;20.50;99.90
9305;DHT22;4690;52.422;13.486;2022-10-17T16:20:12;20.30;99.90
9305;DHT22;4690;52.422;13.486;2022-10-17T16:22:39;20.20;99.90
9305;DHT22;4690;52.422;13.486;2022-10-17T16:27:44;19.90;99.90
9305;DHT22;4690;52.422;13.486;2022-10-17T16:30:12;19.90;99.90
9305;DHT22;4690;52.422;13.486;2022-10-17T16:32:38;19.70;99.90
9305;DHT22;4690;52.422;13.486;2022-10-17T16:35:05;19.60;99.90
9305;DHT22;4690;52.422;13.486;2022-10-17T16:37:32;19.50;99.90
9305;DHT22;4690;52.422;13.486;2022-10-17T16:39:58;19.40;99.90
9305;DHT22;4690;52.422;13.486;2022-10-17T16:42:24;19.30;99.90
9305;DHT22;4690;52.422;13.486;2022-10-17T16:44:50;19.10;99.90
9305;DHT22;4690;52.422;13.486;2022-10-17T16:47:17;19.10;99.90
9305;DHT22;4690;52.422;13.486;2022-10-17T16:49:43;19.00;99.90
9305;DHT22;4690;52.422;13.486;2022-10-17T16:52:09;18.90;99.90
9305;DHT22;4690;52.422;13.486;2022-10-17T16:54:35;18.80;99.90
9305;DHT22;4690;52.422;13.486;2022-10-17T16:57:02;18.70;99.90
9305;DHT22;4690;52.422;13.486;2022-10-17T16:59:28;18.60;99.90
9305;DHT22;4690;52.422;13.486;2022-10-17T17:01:54;18.60;99.90
9305;DHT22;4690;52.422;13.486;2022-10-17T17:04:20;18.50;99.90
9305;DHT22;4690;52.422;13.486;2022-10-17T17:06:46;18.50;99.90
9305;DHT22;4690;52.422;13.486;2022-10-17T17:09:11;18.40;99.90
9305;DHT22;4690;52.422;13.486;2022-10-17T17:11:38;18.30;99.90
9305;DHT22;4690;52.422;13.486;2022-10-17T17:14:06;18.20;99.90
9305;DHT22;4690;52.422;13.486;2022-10-17T17:16:33;18.10;99.90
9305;DHT22;4690;52.422;13.486;2022-10-17T17:19:01;18.00;99.90
9305;DHT22;4690;52.422;13.486;2022-10-17T17:21:35;18.00;99.90
9305;DHT22;4690;52.422;13.486;2022-10-17T17:24:02;17.90;99.90
9305;DHT22;4690;52.422;13.486;2022-10-17T17:26:30;17.90;99.90
9305;DHT22;4690;52.422;13.486;2022-10-17T17:29:00;17.90;99.90
9305;DHT22;4690;52.422;13.486;2022-10-17T17:31:29;17.90;99.90
9305;DHT22;4690;52.422;13.486;2022-10-17T17:33:57;17.80;99.90
9305;DHT22;4690;52.422;13.486;2022-10-17T17:36:26;17.70;99.90
9305;DHT22;4690;52.422;13.486;2022-10-17T17:39:02;17.70;99.90
9305;DHT22;4690;52.422;13.486;2022-10-17T17:41:29;17.60;99.90
9305;DHT22;4690;52.422;13.486;2022-10-17T17:43:55;17.60;99.90
9305;DHT22;4690;52.422;13.486;2022-10-17T17:46:22;17.50;99.90
9305;DHT22;4690;52.422;13.486;2022-10-17T17:48:50;17.50;99.90
9305;DHT22;4690;52.422;13.486;2022-10-17T17:51:19;17.40;99.90
9305;DHT22;4690;52.422;13.486;2022-10-17T17:53:47;17.40;99.90
9305;DHT22;4690;52.422;13.486;2022-10-17T17:56:16;17.40;99.90
9305;DHT22;4690;52.422;13.486;2022-10-17T17:58:44;17.30;99.90
9305;DHT22;4690;52.422;13.486;2022-10-17T18:01:14;17.20;99.90